Time;durP1;ratioP1;P1;durP2;ratioP2;P2;SDS_P1;SDS_P2;PMS_P1;PMS_P2;Temp;Humidity;BMP_temperature;BMP_pressure;BME280_temperature;BME280_humidity;BME280_pressure;Samples;Min_cycle;Max_cycle;Signal;HPM_P1;HPM_P2
2023/04/03 00:01:56;;;;;;;8.77;6.90;;;15.10;77.60;;;;;;10825116;33;20418;-73
2023/04/03 00:07:58;;;;;;;6.82;5.43;;;15.00;77.90;;;;;;10824993;33;20039;-73
2023/04/03 00:14:15;;;;;;;8.32;6.07;;;15.10;77.40;;;;;;10825325;33;20020;-73
2023/04/03 00:20:17;;;;;;;14.20;9.60;;;15.10;77.10;;;;;;10825171;33;20028;-75
2023/04/03 00:26:20;;;;;;;9.85;6.45;;;15.10;77.00;;;;;;10824293;33;20037;-76
2023/04/03 00:32:22;;;;;;;9.20;6.20;;;14.90;77.30;;;;;;10824102;33;20048;-76
2023/04/03 00:38:24;;;;;;;7.68;4.37;;;14.90;77.20;;;;;;10824026;33;20116;-76
2023/04/03 00:44:33;;;;;;;5.82;4.12;;;14.90;77.20;;;;;;10823455;33;20020;-76
2023/04/03 00:50:39;;;;;;;12.85;5.80;;;14.80;77.20;;;;;;10823821;33;20024;-76
2023/04/03 00:56:42;;;;;;;6.82;5.28;;;14.90;77.00;;;;;;10822488;32;20023;-73
2023/04/03 01:02:44;;;;;;;6.50;4.72;;;14.90;76.70;;;;;;10829333;33;20050;-73
2023/04/03 01:08:49;;;;;;;6.55;4.32;;;14.90;76.80;;;;;;10829149;32;20032;-76
2023/04/03 01:14:55;;;;;;;6.37;4.22;;;14.90;76.80;;;;;;10830541;33;20433;-76
2023/04/03 01:21:11;;;;;;;6.18;4.85;;;14.90;77.20;;;;;;10828834;32;20055;-76
2023/04/03 01:27:14;;;;;;;5.40;3.95;;;14.80;77.30;;;;;;10830786;33;20019;-76
2023/04/03 01:33:16;;;;;;;3.85;3.12;;;14.80;77.50;;;;;;10829992;33;20416;-76
2023/04/03 01:39:21;;;;;;;16.95;7.53;;;14.70;77.50;;;;;;10829769;33;20055;-76
2023/04/03 01:45:24;;;;;;;5.10;3.58;;;14.70;77.30;;;;;;10829551;33;20020;-76
2023/04/03 01:51:26;;;;;;;6.75;4.62;;;14.50;77.70;;;;;;10825936;33;20020;-76
2023/04/03 01:57:28;;;;;;;6.68;3.85;;;14.40;77.60;;;;;;10827133;33;20042;-76
2023/04/03 02:03:30;;;;;;;4.18;2.90;;;14.40;77.70;;;;;;10827874;33;20028;-76
2023/04/03 02:09:33;;;;;;;4.20;2.55;;;14.40;77.90;;;;;;10827394;32;20016;-76
2023/04/03 02:15:38;;;;;;;7.12;3.80;;;14.40;78.00;;;;;;10826467;33;20050;-76
2023/04/03 02:21:40;;;;;;;4.65;2.65;;;14.40;78.10;;;;;;10828564;33;20386;-73
2023/04/03 02:27:42;;;;;;;4.55;3.03;;;14.40;78.20;;;;;;10826984;33;20463;-73
2023/04/03 02:33:44;;;;;;;3.80;3.00;;;14.50;78.10;;;;;;10827602;33;20039;-73
2023/04/03 02:39:46;;;;;;;3.60;2.40;;;14.70;78.50;;;;;;10825889;33;20058;-73
2023/04/03 02:45:49;;;;;;;3.90;2.60;;;14.90;78.40;;;;;;10826763;33;20020;-73
2023/04/03 02:51:51;;;;;;;4.97;2.83;;;15.00;78.20;;;;;;10826844;33;20028;-76
2023/04/03 02:57:53;;;;;;;3.55;2.85;;;15.10;78.40;;;;;;10826534;33;20043;-76
2023/04/03 03:03:55;;;;;;;5.28;3.87;;;15.00;78.50;;;;;;10827282;33;20012;-76
2023/04/03 03:09:57;;;;;;;4.43;2.70;;;15.00;78.50;;;;;;10825718;33;20004;-76
2023/04/03 03:15:59;;;;;;;4.12;2.58;;;15.00;78.30;;;;;;10826399;33;20020;-76
2023/04/03 03:22:01;;;;;;;4.78;3.12;;;15.10;78.30;;;;;;10826071;32;20017;-74
2023/04/03 03:28:03;;;;;;;6.80;3.10;;;15.10;78.50;;;;;;10825927;33;20015;-76
2023/04/03 03:34:05;;;;;;;5.28;3.35;;;14.90;78.60;;;;;;10825470;33;20024;-76
2023/04/03 03:40:08;;;;;;;10.32;4.03;;;14.80;78.50;;;;;;10826249;33;20070;-73
2023/04/03 03:46:12;;;;;;;5.35;2.58;;;14.70;78.20;;;;;;10823547;33;20346;-76
2023/04/03 03:52:14;;;;;;;6.80;4.53;;;14.70;77.80;;;;;;10824104;33;20019;-76
2023/04/03 03:58:16;;;;;;;5.05;3.87;;;14.70;77.70;;;;;;10825746;33;20020;-76
2023/04/03 04:04:19;;;;;;;5.07;3.08;;;14.70;77.40;;;;;;10825251;33;20054;-76
2023/04/03 04:10:21;;;;;;;5.00;2.72;;;14.70;77.20;;;;;;10822816;33;20058;-76
2023/04/03 04:16:24;;;;;;;2.12;1.70;;;14.70;77.10;;;;;;10825406;33;20102;-73
2023/04/03 04:22:26;;;;;;;4.37;2.85;;;14.70;76.90;;;;;;10822765;33;20032;-72
2023/04/03 04:28:29;;;;;;;5.65;3.15;;;14.70;76.70;;;;;;10825196;33;20043;-76
2023/04/03 04:34:32;;;;;;;3.58;2.75;;;14.70;76.60;;;;;;10828095;32;20043;-73
2023/04/03 04:40:35;;;;;;;4.60;2.60;;;14.70;76.50;;;;;;10831482;33;20439;-75
2023/04/03 04:46:37;;;;;;;4.35;3.10;;;14.70;76.30;;;;;;10828972;33;20341;-75
2023/04/03 04:52:39;;;;;;;4.55;2.50;;;14.80;76.20;;;;;;10828486;33;20059;-76
2023/04/03 04:58:42;;;;;;;4.80;2.80;;;14.80;76.50;;;;;;10829690;33;20051;-72
2023/04/03 05:04:44;;;;;;;6.70;3.25;;;14.90;77.30;;;;;;10828787;33;20020;-73
2023/04/03 05:10:47;;;;;;;3.70;2.80;;;15.00;77.40;;;;;;10830225;33;20020;-73
2023/04/03 05:16:53;;;;;;;3.50;2.40;;;14.90;77.10;;;;;;10828445;33;20025;-73
2023/04/03 05:22:56;;;;;;;2.40;2.00;;;14.90;77.10;;;;;;10815672;33;20028;-76
2023/04/03 05:28:58;;;;;;;4.95;2.45;;;15.00;76.90;;;;;;10825553;33;20032;-73
2023/04/03 05:35:00;;;;;;;3.53;2.33;;;15.00;76.60;;;;;;10828522;33;20299;-73
2023/04/03 05:41:03;;;;;;;2.37;1.70;;;15.10;76.90;;;;;;10829308;33;20060;-73
2023/04/03 05:47:05;;;;;;;2.92;1.98;;;15.10;76.80;;;;;;10827242;32;20378;-73
2023/04/03 05:53:26;;;;;;;6.10;1.98;;;15.10;76.80;;;;;;10823549;33;20050;-73
2023/04/03 05:59:29;;;;;;;2.95;1.90;;;15.00;76.80;;;;;;10820295;32;20440;-73
2023/04/03 06:05:32;;;;;;;2.03;1.65;;;14.90;77.40;;;;;;10819000;32;20410;-72
2023/04/03 06:11:35;;;;;;;3.10;2.08;;;14.80;77.90;;;;;;10825952;33;20054;-73
2023/04/03 06:17:37;;;;;;;6.15;3.30;;;14.80;78.60;;;;;;10802634;33;20016;-73
2023/04/03 06:23:40;;;;;;;3.03;2.50;;;14.90;78.80;;;;;;10791664;33;20433;-73
2023/04/03 06:29:43;;;;;;;3.00;2.05;;;15.00;79.10;;;;;;10791005;33;20048;-73
2023/04/03 06:35:45;;;;;;;3.55;1.77;;;15.10;79.10;;;;;;10789800;33;20051;-76
2023/04/03 06:41:47;;;;;;;4.72;2.10;;;15.00;78.90;;;;;;10790378;33;20047;-73
2023/04/03 06:47:50;;;;;;;6.18;2.65;;;14.80;79.00;;;;;;10809224;33;20440;-73
2023/04/03 06:53:54;;;;;;;7.62;3.50;;;14.70;79.10;;;;;;10824137;33;20082;-73
2023/04/03 06:59:57;;;;;;;3.28;2.10;;;14.60;76.80;;;;;;10824911;32;20036;-73
2023/04/03 07:05:59;;;;;;;8.98;3.20;;;14.40;77.60;;;;;;10828012;33;20317;-73
2023/04/03 07:12:01;;;;;;;3.25;2.28;;;14.50;76.30;;;;;;10820419;32;20028;-73
2023/04/03 07:18:04;;;;;;;7.18;3.33;;;14.20;76.60;;;;;;10811254;33;20055;-73
2023/04/03 07:24:06;;;;;;;6.10;2.72;;;14.20;77.30;;;;;;10824777;33;20042;-74
2023/04/03 07:30:09;;;;;;;4.97;3.33;;;14.20;76.60;;;;;;10826731;33;20397;-74
2023/04/03 07:36:16;;;;;;;3.47;2.37;;;14.20;75.70;;;;;;10821430;33;20028;-74
2023/04/03 07:42:18;;;;;;;7.57;2.65;;;14.20;75.80;;;;;;10825170;33;20039;-77
2023/04/03 07:48:23;;;;;;;4.53;2.90;;;14.30;75.80;;;;;;10824139;33;20058;-77
2023/04/03 07:54:25;;;;;;;9.23;3.42;;;14.40;73.80;;;;;;10825551;27;20050;-77
2023/04/03 08:00:28;;;;;;;3.70;2.37;;;14.50;74.40;;;;;;10824445;33;20023;-77
2023/04/03 08:06:34;;;;;;;12.02;3.35;;;14.50;73.90;;;;;;10820914;32;20409;-77
2023/04/03 08:12:36;;;;;;;10.68;2.83;;;14.60;75.20;;;;;;10817702;33;20043;-76
2023/04/03 08:18:39;;;;;;;9.18;3.47;;;14.70;73.20;;;;;;10819939;33;20435;-76
2023/04/03 08:24:41;;;;;;;4.60;2.40;;;14.70;74.10;;;;;;10818347;33;20206;-76
2023/04/03 08:30:45;;;;;;;9.30;2.90;;;14.60;72.70;;;;;;10818564;33;20354;-77
2023/04/03 08:36:48;;;;;;;4.07;2.22;;;14.70;73.70;;;;;;10820414;33;20020;-77
2023/04/03 08:43:05;;;;;;;4.62;2.08;;;14.60;72.70;;;;;;10819459;33;20020;-77
2023/04/03 08:49:35;;;;;;;4.22;2.40;;;14.60;72.70;;;;;;10820051;32;20054;-77
2023/04/03 08:55:43;;;;;;;6.80;2.45;;;14.70;72.50;;;;;;10819205;33;20050;-77
2023/04/03 09:01:45;;;;;;;6.87;2.10;;;14.80;72.40;;;;;;10819284;33;20342;-76
2023/04/03 09:08:26;;;;;;;7.18;3.03;;;14.90;72.30;;;;;;10817912;33;20024;-77
2023/04/03 09:14:39;;;;;;;14.38;3.65;;;15.10;71.70;;;;;;10819152;33;20047;-77
2023/04/03 09:20:50;;;;;;;14.90;3.28;;;15.10;71.80;;;;;;10821682;32;20016;-77
2023/04/03 09:27:00;;;;;;;3.78;1.77;;;15.10;71.00;;;;;;10823794;33;20032;-77
2023/04/03 09:33:02;;;;;;;9.77;2.67;;;15.00;70.10;;;;;;10820400;33;20405;-77
2023/04/03 09:39:09;;;;;;;6.40;2.45;;;15.30;70.80;;;;;;10824182;33;20032;-77
2023/04/03 09:45:24;;;;;;;5.62;2.97;;;15.30;72.00;;;;;;10824773;33;20015;-77
2023/04/03 09:51:30;;;;;;;10.10;2.50;;;15.50;70.60;;;;;;10824576;33;20020;-76
2023/04/03 09:57:33;;;;;;;7.37;2.80;;;15.50;69.30;;;;;;10824421;33;20055;-77
2023/04/03 10:03:36;;;;;;;13.27;2.80;;;15.60;68.90;;;;;;10822475;33;20037;-77
2023/04/03 10:09:42;;;;;;;4.62;2.67;;;16.00;68.00;;;;;;10826964;33;20050;-77
2023/04/03 10:15:48;;;;;;;10.07;3.10;;;16.20;67.80;;;;;;10823224;33;20028;-77
2023/04/03 10:22:22;;;;;;;5.30;2.58;;;16.20;67.80;;;;;;10824181;33;20054;-77
2023/04/03 10:28:47;;;;;;;7.97;2.83;;;15.90;68.40;;;;;;10863479;32;20024;-77
2023/04/03 10:35:14;;;;;;;6.25;2.45;;;15.90;69.40;;;;;;10861601;32;20054;-77
2023/04/03 10:41:30;;;;;;;10.15;3.08;;;16.30;69.80;;;;;;10853232;32;20414;-76
2023/04/03 10:47:54;;;;;;;6.75;2.85;;;16.40;68.30;;;;;;10866741;32;20428;-77
2023/04/03 10:54:13;;;;;;;14.25;2.92;;;16.70;70.30;;;;;;10865567;32;20351;-77
2023/04/03 11:00:21;;;;;;;9.75;2.45;;;17.10;68.60;;;;;;10849761;32;20039;-76
2023/04/03 11:06:28;;;;;;;4.80;2.00;;;17.20;68.30;;;;;;10825353;32;20455;-77
2023/04/03 11:12:33;;;;;;;8.70;3.30;;;17.20;67.90;;;;;;10800725;33;20188;-76
2023/04/03 11:19:01;;;;;;;8.95;3.30;;;17.40;67.90;;;;;;10807754;32;20032;-77
2023/04/03 11:25:21;;;;;;;4.87;2.05;;;17.60;67.10;;;;;;10825639;32;20353;-77
2023/04/03 11:31:51;;;;;;;5.30;2.15;;;17.90;67.60;;;;;;10825838;33;20357;-76
2023/04/03 11:37:54;;;;;;;7.00;1.98;;;18.20;68.10;;;;;;10796138;33;20033;-77
2023/04/03 11:43:58;;;;;;;1.75;1.52;;;18.20;67.30;;;;;;10783981;33;20036;-77
2023/04/03 11:50:05;;;;;;;8.30;2.85;;;18.30;66.00;;;;;;10784513;33;20432;-77
2023/04/03 11:56:32;;;;;;;3.00;1.42;;;18.50;65.60;;;;;;10795663;33;20028;-77
2023/04/03 12:02:37;;;;;;;5.37;2.65;;;18.30;68.60;;;;;;10783985;33;20338;-75
2023/04/03 12:08:39;;;;;;;4.50;2.42;;;18.70;67.70;;;;;;10783675;33;20413;-76
2023/04/03 12:14:41;;;;;;;10.10;2.53;;;18.70;65.00;;;;;;10783034;33;20025;-75
2023/04/03 12:20:53;;;;;;;3.22;1.87;;;18.80;65.40;;;;;;10783834;33;20473;-76
2023/04/03 12:27:18;;;;;;;5.30;2.10;;;18.90;64.60;;;;;;10783548;33;20020;-76
2023/04/03 12:34:05;;;;;;;6.22;1.90;;;18.90;65.10;;;;;;10783446;33;20056;-76
2023/04/03 12:40:10;;;;;;;4.65;2.83;;;18.80;63.90;;;;;;10783389;33;20037;-76
2023/04/03 12:46:28;;;;;;;5.45;2.58;;;18.80;64.30;;;;;;10780561;33;20040;-76
2023/04/03 12:52:54;;;;;;;8.25;2.12;;;18.70;63.20;;;;;;10804696;32;20059;-76
2023/04/03 12:59:23;;;;;;;8.43;3.05;;;18.70;63.30;;;;;;10821960;33;20024;-76
2023/04/03 13:05:26;;;;;;;7.05;2.28;;;18.90;61.90;;;;;;10827791;33;20016;-76
2023/04/03 13:11:35;;;;;;;9.07;2.20;;;19.00;61.40;;;;;;10822067;33;20058;-76
2023/04/03 13:17:42;;;;;;;5.35;2.17;;;19.10;63.50;;;;;;10822079;33;20058;-76
2023/04/03 13:23:50;;;;;;;3.50;2.30;;;19.20;62.40;;;;;;10807322;33;20414;-76
2023/04/03 13:29:56;;;;;;;6.82;2.58;;;19.00;63.00;;;;;;10826558;33;20394;-76
2023/04/03 13:36:16;;;;;;;6.97;1.62;;;18.90;60.10;;;;;;10796597;33;20063;-76
2023/04/03 13:42:29;;;;;;;8.73;2.58;;;19.00;58.60;;;;;;10793174;32;20032;-76
2023/04/03 13:48:53;;;;;;;4.70;1.95;;;19.10;60.40;;;;;;10791321;33;20047;-76
2023/04/03 13:54:59;;;;;;;8.50;1.95;;;19.20;60.00;;;;;;10791164;33;20024;-76
2023/04/03 14:01:37;;;;;;;4.93;2.22;;;18.90;60.40;;;;;;10820963;33;20052;-76
2023/04/03 14:07:39;;;;;;;7.78;1.52;;;18.80;61.40;;;;;;10826251;32;20054;-77
2023/04/03 14:13:42;;;;;;;6.72;1.87;;;18.80;60.20;;;;;;10828470;33;20043;-76
2023/04/03 14:19:46;;;;;;;4.85;2.08;;;18.90;61.50;;;;;;10823564;33;20086;-76
2023/04/03 14:25:48;;;;;;;1.60;1.20;;;18.80;60.90;;;;;;10933419;32;20015;-76
2023/04/03 14:31:50;;;;;;;12.13;2.35;;;18.80;62.50;;;;;;10983352;32;20332;-76
2023/04/03 14:37:53;;;;;;;6.97;1.75;;;18.90;60.20;;;;;;10857478;32;20051;-76
2023/04/03 14:43:56;;;;;;;8.23;2.28;;;19.00;60.90;;;;;;10786569;33;20362;-76
2023/04/03 14:50:02;;;;;;;7.85;2.03;;;19.30;59.80;;;;;;10804719;33;20070;-76
2023/04/03 14:56:21;;;;;;;4.25;1.60;;;19.50;60.00;;;;;;10826908;33;20381;-76
2023/04/03 15:02:26;;;;;;;;;;;19.50;59.40;;;;;;10797307;33;20449;-76
2023/04/03 15:08:29;;;;;;;4.15;1.35;;;19.40;59.80;;;;;;10776543;33;20289;-76
2023/04/03 15:14:31;;;;;;;3.05;1.85;;;19.30;60.40;;;;;;10788557;33;20044;-76
2023/04/03 15:20:33;;;;;;;5.03;1.85;;;19.30;61.70;;;;;;10787620;33;20020;-76
2023/04/03 15:26:36;;;;;;;6.03;1.92;;;19.60;62.50;;;;;;10790523;33;20389;-76
2023/04/03 15:32:38;;;;;;;4.97;2.30;;;19.70;65.90;;;;;;10788617;33;20020;-75
2023/04/03 15:38:40;;;;;;;3.97;2.00;;;19.60;66.90;;;;;;10789861;33;20024;-75
2023/04/03 15:44:42;;;;;;;2.65;1.60;;;19.60;66.60;;;;;;10788748;33;20027;-75
2023/04/03 15:50:44;;;;;;;3.83;2.03;;;19.70;66.00;;;;;;10318715;32;16947460;-73
2023/04/03 15:56:47;;;;;;;6.30;2.22;;;19.60;66.90;;;;;;10940487;32;20439;-74
2023/04/03 16:02:52;;;;;;;3.42;1.80;;;19.80;64.80;;;;;;10942117;32;20041;-74
2023/04/03 16:08:57;;;;;;;3.65;1.10;;;20.40;64.70;;;;;;10921926;32;20189;-76
2023/04/03 16:14:59;;;;;;;2.85;1.50;;;21.00;63.00;;;;;;10927336;32;20022;-76
2023/04/03 16:21:02;;;;;;;4.80;2.45;;;21.30;64.40;;;;;;10940980;32;20045;-76
2023/04/03 16:27:04;;;;;;;2.85;1.80;;;21.40;64.40;;;;;;10922365;32;20058;-76
2023/04/03 16:33:08;;;;;;;5.78;1.55;;;21.40;64.10;;;;;;10936798;32;20057;-76
2023/04/03 16:39:10;;;;;;;4.30;1.42;;;21.00;62.10;;;;;;10936245;32;20022;-76
2023/04/03 16:45:12;;;;;;;6.32;1.40;;;19.90;62.00;;;;;;10935651;32;20031;-74
2023/04/03 16:51:15;;;;;;;6.60;2.25;;;19.00;62.90;;;;;;10928151;32;20077;-74
2023/04/03 16:57:17;;;;;;;5.15;1.85;;;18.40;61.00;;;;;;10941281;32;20041;-74
2023/04/03 17:03:19;;;;;;;2.97;1.80;;;17.80;60.20;;;;;;10941550;32;20041;-74
2023/04/03 17:09:22;;;;;;;6.15;2.22;;;17.50;60.40;;;;;;10936090;32;20019;-74
2023/04/03 17:15:25;;;;;;;3.30;1.80;;;17.20;62.60;;;;;;10940684;32;20051;-74
2023/04/03 17:21:27;;;;;;;2.10;1.55;;;17.00;60.50;;;;;;10940386;32;20023;-73
2023/04/03 17:27:30;;;;;;;3.87;2.05;;;16.80;61.30;;;;;;10941767;32;20381;-74
2023/04/03 17:33:32;;;;;;;4.97;2.10;;;16.70;62.70;;;;;;10941091;32;20016;-74
2023/04/03 17:39:35;;;;;;;4.40;2.67;;;16.60;62.50;;;;;;10928076;32;20027;-74
2023/04/03 17:45:38;;;;;;;3.17;1.95;;;16.50;64.10;;;;;;10940417;32;20039;-74
2023/04/03 17:51:41;;;;;;;4.37;2.25;;;16.60;63.60;;;;;;10943194;32;20041;-74
2023/04/03 17:57:43;;;;;;;4.22;2.50;;;16.50;64.00;;;;;;10942458;32;20412;-73
2023/04/03 18:03:47;;;;;;;4.30;2.30;;;16.50;64.60;;;;;;10942906;32;20416;-74
2023/04/03 18:09:51;;;;;;;5.22;2.35;;;16.30;64.70;;;;;;10942589;32;20049;-74
2023/04/03 18:15:54;;;;;;;3.37;2.45;;;16.20;63.80;;;;;;10918893;32;20050;-74
2023/04/03 18:22:06;;;;;;;4.43;3.00;;;16.10;64.50;;;;;;10933200;32;20041;-74
2023/04/03 18:28:09;;;;;;;4.62;2.35;;;16.00;64.70;;;;;;10946235;32;20011;-74
2023/04/03 18:34:11;;;;;;;4.62;2.50;;;15.90;62.80;;;;;;10919194;32;20027;-74
2023/04/03 18:40:13;;;;;;;7.97;3.25;;;15.90;63.70;;;;;;10928631;32;20037;-76
2023/04/03 18:46:16;;;;;;;3.55;2.10;;;16.00;65.80;;;;;;10928061;32;20053;-76
2023/04/03 18:52:19;;;;;;;3.15;1.92;;;16.20;67.30;;;;;;10944541;32;20015;-76
2023/04/03 18:58:21;;;;;;;4.07;3.12;;;16.00;65.90;;;;;;10945070;32;20050;-76
2023/04/03 19:04:25;;;;;;;5.78;2.40;;;16.00;67.80;;;;;;10930844;32;20045;-74
2023/04/03 19:10:27;;;;;;;3.15;2.37;;;15.90;66.30;;;;;;10943308;32;20031;-76
2023/04/03 19:16:29;;;;;;;2.85;1.65;;;15.70;65.90;;;;;;10927918;32;20049;-73
2023/04/03 19:22:32;;;;;;;7.93;2.60;;;15.80;68.30;;;;;;10940739;32;20333;-74
2023/04/03 19:28:35;;;;;;;4.18;2.05;;;16.10;69.10;;;;;;10944595;32;20316;-74
2023/04/03 19:34:37;;;;;;;5.18;3.25;;;16.10;69.40;;;;;;10925895;32;20031;-73
2023/04/03 19:40:42;;;;;;;3.47;2.45;;;16.10;68.00;;;;;;10943927;32;20015;-74
2023/04/03 19:46:44;;;;;;;3.20;2.45;;;16.20;69.40;;;;;;10926466;32;20100;-75
2023/04/03 19:52:46;;;;;;;5.65;2.58;;;16.10;68.00;;;;;;10942739;32;20337;-74
2023/04/03 19:58:55;;;;;;;5.82;2.33;;;15.80;67.40;;;;;;10943340;32;20023;-76
2023/04/03 20:04:57;;;;;;;5.93;2.83;;;15.50;65.20;;;;;;10943276;32;20046;-74
2023/04/03 20:10:59;;;;;;;4.55;2.20;;;15.30;65.90;;;;;;10929698;32;20027;-74
2023/04/03 20:17:03;;;;;;;4.78;2.85;;;15.20;65.90;;;;;;10940511;32;20023;-76
2023/04/03 20:23:06;;;;;;;8.23;3.62;;;15.30;67.50;;;;;;10929888;32;20054;-76
2023/04/03 20:29:08;;;;;;;4.68;2.78;;;15.20;67.00;;;;;;10927954;32;20034;-76
2023/04/03 20:35:11;;;;;;;6.15;2.03;;;15.30;68.60;;;;;;10942716;32;20023;-76
2023/04/03 20:41:14;;;;;;;3.75;1.90;;;15.60;69.80;;;;;;10942956;32;20034;-76
2023/04/03 20:47:16;;;;;;;2.22;1.67;;;15.70;71.40;;;;;;10942883;32;20011;-76
2023/04/03 20:53:19;;;;;;;2.33;1.60;;;15.80;70.60;;;;;;10927276;32;20349;-76
2023/04/03 20:59:22;;;;;;;3.97;2.08;;;15.80;71.80;;;;;;10926365;32;20039;-77
2023/04/03 21:05:26;;;;;;;2.65;1.42;;;15.90;72.00;;;;;;10940365;32;20074;-76
2023/04/03 21:12:06;;;;;;;2.17;1.62;;;16.00;72.40;;;;;;10941898;32;20290;-76
2023/04/03 21:18:08;;;;;;;1.23;1.15;;;15.90;72.80;;;;;;10934127;32;20015;-76
2023/04/03 21:24:11;;;;;;;3.22;1.50;;;15.90;72.80;;;;;;10921688;32;20038;-76
2023/04/03 21:30:14;;;;;;;5.60;2.25;;;15.80;72.70;;;;;;10948898;32;20030;-77
2023/04/03 21:36:16;;;;;;;2.28;1.75;;;15.70;72.70;;;;;;10943820;32;20360;-76
2023/04/03 21:42:18;;;;;;;1.48;1.37;;;15.70;73.10;;;;;;10946870;32;20019;-76
2023/04/03 21:48:22;;;;;;;4.50;2.70;;;15.90;74.10;;;;;;10947857;32;20020;-76
2023/04/03 21:54:24;;;;;;;4.65;2.22;;;15.70;74.10;;;;;;10944552;32;20423;-76
2023/04/03 22:00:26;;;;;;;5.03;2.67;;;15.60;74.20;;;;;;10933143;32;20038;-76
2023/04/03 22:06:28;;;;;;;5.40;1.77;;;15.40;74.50;;;;;;10947763;32;20019;-76
2023/04/03 22:12:31;;;;;;;2.12;1.70;;;15.40;74.50;;;;;;10945073;32;20023;-76
2023/04/03 22:18:34;;;;;;;1.83;1.52;;;15.40;74.20;;;;;;10945459;32;20038;-77
2023/04/03 22:24:38;;;;;;;3.30;1.90;;;15.40;74.20;;;;;;10942910;32;20392;-76
2023/04/03 22:30:40;;;;;;;2.60;1.70;;;15.20;73.80;;;;;;10940140;32;20015;-76
2023/04/03 22:36:42;;;;;;;2.05;1.48;;;15.20;74.10;;;;;;10930164;32;20405;-76
2023/04/03 22:42:48;;;;;;;4.22;2.47;;;15.20;74.10;;;;;;10945310;32;20015;-76
2023/04/03 22:48:51;;;;;;;5.37;1.95;;;15.00;73.70;;;;;;10932335;32;20007;-76
2023/04/03 22:54:53;;;;;;;2.30;1.70;;;15.00;73.60;;;;;;10944544;32;20019;-76
2023/04/03 23:01:02;;;;;;;4.03;1.60;;;15.10;74.10;;;;;;10931379;32;20403;-76
2023/04/03 23:07:04;;;;;;;2.58;1.60;;;14.90;74.50;;;;;;10930664;32;20057;-76
2023/04/03 23:13:06;;;;;;;1.40;1.30;;;14.90;74.40;;;;;;10943790;32;20018;-76
2023/04/03 23:19:08;;;;;;;3.75;1.77;;;15.00;74.50;;;;;;10944682;32;20023;-76
2023/04/03 23:25:11;;;;;;;3.78;1.70;;;14.90;74.40;;;;;;10939217;32;20015;-76
2023/04/03 23:31:13;;;;;;;6.78;2.40;;;14.90;75.10;;;;;;10944333;32;20038;-76
2023/04/03 23:37:15;;;;;;;2.28;1.48;;;14.90;75.20;;;;;;10930934;32;20340;-76
2023/04/03 23:43:17;;;;;;;4.32;1.50;;;14.90;75.80;;;;;;10929830;32;20015;-77
2023/04/03 23:49:19;;;;;;;2.50;1.73;;;14.90;76.10;;;;;;10932882;27;20075;-77
2023/04/03 23:55:21;;;;;;;3.25;1.48;;;14.90;75.80;;;;;;10942834;32;20031;-76
